Time;durP1;ratioP1;P1;durP2;ratioP2;P2;SDS_P1;SDS_P2;PMS_P1;PMS_P2;Temp;Humidity;BMP_temperature;BMP_pressure;BME280_temperature;BME280_humidity;BME280_pressure;Samples;Min_cycle;Max_cycle;Signal;HPM_P1;HPM_P2
2024/03/13 00:01:57;;;;;;;52.97;22.73;;;;;;;4.40;100.00;100875.16;6226726;23;20024;-84
2024/03/13 00:04:25;;;;;;;44.95;22.35;;;;;;;4.40;100.00;100869.97;6201108;23;20103;-86
2024/03/13 00:06:53;;;;;;;45.72;21.17;;;;;;;4.39;100.00;100875.13;6226998;23;20043;-86
2024/03/13 00:09:20;;;;;;;43.33;22.40;;;;;;;4.39;100.00;100869.94;6228360;23;20027;-85
2024/03/13 00:11:49;;;;;;;52.13;23.20;;;;;;;4.39;100.00;100872.53;6226700;23;20016;-83
2024/03/13 00:14:16;;;;;;;45.90;22.60;;;;;;;4.40;100.00;100874.28;6202580;23;20414;-86
2024/03/13 00:16:44;;;;;;;41.75;21.92;;;;;;;4.39;100.00;100870.81;6228919;23;20035;-83
2024/03/13 00:19:12;;;;;;;50.10;23.63;;;;;;;4.41;100.00;100869.13;6205094;23;20031;-85
2024/03/13 00:21:41;;;;;;;41.72;20.98;;;;;;;4.44;100.00;100871.78;6228155;23;20044;-84
2024/03/13 00:24:09;;;;;;;39.75;20.65;;;;;;;4.46;100.00;100871.81;6230479;23;20027;-83
2024/03/13 00:26:37;;;;;;;47.60;22.33;;;;;;;4.54;100.00;100869.38;6229786;23;20110;-84
2024/03/13 00:29:04;;;;;;;49.42;22.58;;;;;;;4.61;100.00;100866.91;6204750;23;20024;-84
2024/03/13 00:31:33;;;;;;;50.80;22.50;;;;;;;4.69;100.00;100861.00;6256512;23;20030;-83
2024/03/13 00:34:06;;;;;;;47.97;19.80;;;;;;;4.74;100.00;100864.56;6205684;23;20016;-84
2024/03/13 00:36:33;;;;;;;45.72;23.25;;;;;;;4.76;100.00;100858.56;6234229;23;20016;-84
2024/03/13 00:39:00;;;;;;;46.08;23.85;;;;;;;4.76;100.00;100860.28;6257864;23;20046;-83
2024/03/13 00:41:27;;;;;;;51.58;21.77;;;;;;;4.75;100.00;100851.63;6233103;23;20016;-85
2024/03/13 00:43:55;;;;;;;46.00;21.05;;;;;;;4.71;100.00;100855.00;6208936;23;20032;-83
2024/03/13 00:46:23;;;;;;;45.55;21.50;;;;;;;4.70;100.00;100857.56;6233430;23;20012;-84
2024/03/13 00:48:50;;;;;;;46.60;21.95;;;;;;;4.66;100.00;100848.84;6232461;23;20048;-83
2024/03/13 00:51:18;;;;;;;43.17;21.65;;;;;;;4.63;100.00;100852.25;6207157;23;20028;-85
2024/03/13 00:53:46;;;;;;;44.78;21.90;;;;;;;4.59;100.00;100853.06;6228511;23;20054;-83
2024/03/13 00:56:12;;;;;;;40.42;20.08;;;;;;;4.57;100.00;100853.88;6227035;23;20019;-83
2024/03/13 00:58:39;;;;;;;48.25;22.52;;;;;;;4.52;100.00;100850.31;6204091;23;20432;-83
2024/03/13 01:01:06;;;;;;;45.15;22.85;;;;;;;4.47;100.00;100853.72;6229871;23;20031;-85
2024/03/13 01:03:33;;;;;;;47.47;23.88;;;;;;;4.45;100.00;100851.94;6205374;23;20052;-85
2024/03/13 01:06:00;;;;;;;47.70;21.95;;;;;;;4.41;100.00;100853.56;6227499;23;20103;-86
2024/03/13 01:08:30;;;;;;;44.03;20.58;;;;;;;4.39;100.00;100856.97;6179183;23;20020;-85
2024/03/13 01:10:58;;;;;;;44.70;22.58;;;;;;;4.34;100.00;100850.84;6236698;22;20028;-83
2024/03/13 01:13:28;;;;;;;48.67;22.80;;;;;;;4.34;100.00;100849.13;6226889;23;20024;-83
2024/03/13 01:15:57;;;;;;;46.63;21.45;;;;;;;4.32;100.00;100848.22;6226473;23;20054;-85
2024/03/13 01:18:24;;;;;;;40.55;20.98;;;;;;;4.30;100.00;100844.72;6253037;23;20020;-85
2024/03/13 01:20:51;;;;;;;43.22;22.80;;;;;;;4.25;100.00;100835.97;6225582;23;20020;-83
2024/03/13 01:23:20;;;;;;;45.10;20.83;;;;;;;4.24;100.00;100842.03;6226100;23;20111;-84
2024/03/13 01:25:48;;;;;;;45.78;20.40;;;;;;;4.24;100.00;100837.69;6226207;23;20223;-83
2024/03/13 01:28:15;;;;;;;50.95;22.33;;;;;;;4.22;100.00;100829.00;6250121;23;20020;-84
2024/03/13 01:30:43;;;;;;;43.17;21.70;;;;;;;4.22;100.00;100833.31;6225985;23;20438;-86
2024/03/13 01:33:11;;;;;;;41.58;20.42;;;;;;;4.22;100.00;100830.75;6227389;23;20028;-84
2024/03/13 01:35:40;;;;;;;42.53;20.67;;;;;;;4.19;100.00;100830.69;6228080;23;20084;-84
2024/03/13 01:38:08;;;;;;;45.92;22.80;;;;;;;4.17;100.00;100820.25;6225373;23;20044;-85
2024/03/13 01:55:10;;;;;;;49.97;22.70;;;;;;;4.10;100.00;100805.47;6248298;22;20058;-83
2024/03/13 02:03:15;;;;;;;48.33;20.70;;;;;;;4.08;100.00;100805.44;6235423;22;20012;-85
2024/03/13 02:05:46;;;;;;;52.10;23.67;;;;;;;4.04;100.00;100814.00;6255402;22;20016;-84
2024/03/13 02:08:18;;;;;;;48.10;21.35;;;;;;;4.03;100.00;100816.53;6255406;22;20031;-86
2024/03/13 02:10:50;;;;;;;46.80;21.73;;;;;;;3.98;100.00;100812.13;6230954;22;20461;-85
2024/03/13 02:13:19;;;;;;;44.47;22.80;;;;;;;3.97;100.00;100812.09;6254210;22;20066;-85
2024/03/13 02:15:47;;;;;;;40.00;20.45;;;;;;;3.93;100.00;100812.88;6254492;22;20047;-84
2024/03/13 02:18:30;;;;;;;45.28;21.88;;;;;;;3.88;100.00;100810.19;6254080;22;20084;-84
2024/03/13 02:21:03;;;;;;;53.67;24.40;;;;;;;3.88;100.00;100801.56;6229770;22;20023;-82
2024/03/13 02:23:30;;;;;;;45.28;22.33;;;;;;;3.89;100.00;100808.50;6229504;22;20027;-83
2024/03/13 02:25:57;;;;;;;45.05;22.88;;;;;;;3.85;100.00;100809.28;6254744;22;20016;-83
2024/03/13 02:28:31;;;;;;;43.33;21.90;;;;;;;3.84;100.00;100816.16;6230058;22;20483;-84
2024/03/13 02:30:58;;;;;;;46.63;21.85;;;;;;;3.84;100.00;100810.97;6254539;22;20020;-83
2024/03/13 02:33:25;;;;;;;52.05;24.45;;;;;;;3.83;100.00;100808.34;6256455;22;20024;-84
2024/03/13 02:35:51;;;;;;;45.08;21.08;;;;;;;3.82;100.00;100802.31;6230855;22;20015;-82
2024/03/13 02:38:18;;;;;;;47.40;22.50;;;;;;;3.81;100.00;100804.00;6256758;22;20019;-83
2024/03/13 02:40:48;;;;;;;45.38;21.88;;;;;;;3.80;100.00;100810.03;6231753;22;20025;-85
2024/03/13 02:43:19;;;;;;;45.15;22.63;;;;;;;3.80;100.00;100803.97;6231965;22;20020;-86
2024/03/13 02:45:49;;;;;;;51.55;22.10;;;;;;;3.80;100.00;100806.56;6256980;22;20043;-85
2024/03/13 02:48:16;;;;;;;44.47;21.60;;;;;;;3.77;100.00;100801.34;6256026;22;20023;-83
2024/03/13 02:50:46;;;;;;;45.80;20.90;;;;;;;3.75;100.00;100801.28;6231000;22;20020;-84
2024/03/13 02:53:14;;;;;;;49.35;23.73;;;;;;;3.74;100.00;100799.56;6256837;22;20027;-86
2024/03/13 02:55:43;;;;;;;49.88;20.52;;;;;;;3.75;100.00;100795.25;6232312;22;20051;-85
2024/03/13 02:58:10;;;;;;;49.92;22.17;;;;;;;3.71;100.00;100799.47;6230886;22;20031;-85
2024/03/13 03:00:37;;;;;;;46.58;22.17;;;;;;;3.70;100.00;100797.72;6231279;22;20070;-83
2024/03/13 03:03:04;;;;;;;45.25;19.98;;;;;;;3.67;100.00;100799.41;6230498;22;20023;-85
2024/03/13 03:05:35;;;;;;;42.95;22.17;;;;;;;3.66;100.00;100793.31;6229641;22;20085;-83
2024/03/13 03:08:04;;;;;;;58.15;22.55;;;;;;;3.66;100.00;100795.06;6229672;22;20516;-86
2024/03/13 03:10:33;;;;;;;53.28;22.58;;;;;;;3.64;100.00;100798.47;6255957;22;20032;-84
2024/03/13 03:13:00;;;;;;;52.22;21.20;;;;;;;3.63;100.00;100795.84;6231892;22;20106;-84
2024/03/13 03:15:28;;;;;;;49.10;23.67;;;;;;;3.62;100.00;100787.22;6256655;22;20357;-84
2024/03/13 03:17:55;;;;;;;50.22;23.55;;;;;;;3.63;100.00;100788.94;6231534;22;20034;-83
2024/03/13 03:20:21;;;;;;;44.92;23.48;;;;;;;3.62;100.00;100786.34;6231520;22;20023;-85
2024/03/13 03:22:48;;;;;;;47.60;22.50;;;;;;;3.59;100.00;100778.53;6231213;22;20041;-84
2024/03/13 03:25:15;;;;;;;50.30;21.98;;;;;;;3.59;100.00;100787.16;6230003;22;20425;-84
2024/03/13 03:27:44;;;;;;;50.38;23.88;;;;;;;3.58;100.00;100787.13;6229718;22;20072;-82
2024/03/13 03:30:12;;;;;;;47.00;21.55;;;;;;;3.59;100.00;100791.47;6281360;22;20110;-85
2024/03/13 03:32:39;;;;;;;46.20;21.02;;;;;;;3.61;100.00;100787.16;6231297;22;20023;-84
2024/03/13 03:35:10;;;;;;;57.17;24.48;;;;;;;3.60;100.00;100790.63;6230859;22;20031;-86
2024/03/13 03:37:38;;;;;;;45.10;22.92;;;;;;;3.55;100.00;100782.75;6232434;22;20034;-83
2024/03/13 03:40:13;;;;;;;50.80;22.75;;;;;;;3.56;100.00;100788.78;6230657;22;20012;-82
2024/03/13 03:42:43;;;;;;;48.08;24.30;;;;;;;3.54;100.00;100786.16;6236551;22;20023;-83
2024/03/13 03:45:11;;;;;;;49.33;21.95;;;;;;;3.53;100.00;100794.75;6260550;22;20019;-83
2024/03/13 03:47:38;;;;;;;42.70;20.60;;;;;;;3.54;100.00;100790.47;6235411;22;20027;-86
2024/03/13 03:50:07;;;;;;;49.70;21.70;;;;;;;3.53;100.00;100788.72;6257445;22;20144;-83
2024/03/13 03:52:35;;;;;;;45.85;22.50;;;;;;;3.49;100.00;100785.19;6233016;22;20621;-84
2024/03/13 03:55:03;;;;;;;45.00;22.55;;;;;;;3.50;100.00;100786.94;6232394;22;20016;-84
2024/03/13 03:57:29;;;;;;;45.65;22.00;;;;;;;3.49;100.00;100785.19;6232356;22;20039;-85
2024/03/13 03:59:56;;;;;;;54.78;24.00;;;;;;;3.49;100.00;100787.78;6281343;22;20024;-84
2024/03/13 04:02:23;;;;;;;52.35;22.80;;;;;;;3.46;100.00;100785.13;6256409;22;20019;-83
2024/03/13 04:04:49;;;;;;;48.92;22.83;;;;;;;3.45;100.00;100786.84;6230291;22;20031;-84
2024/03/13 04:07:17;;;;;;;39.47;20.88;;;;;;;3.48;100.00;100793.78;6230057;22;20027;-84
2024/03/13 04:09:43;;;;;;;44.50;20.27;;;;;;;3.50;100.00;100793.84;6230367;22;20368;-82
2024/03/13 04:12:10;;;;;;;49.40;20.95;;;;;;;3.46;100.00;100791.16;6255419;22;20020;-84
2024/03/13 04:14:37;;;;;;;46.95;22.35;;;;;;;3.50;100.00;100786.09;6255195;22;20452;-84
2024/03/13 04:17:04;;;;;;;52.05;22.55;;;;;;;3.48;100.00;100796.38;6229689;22;20030;-84
2024/03/13 04:19:31;;;;;;;59.22;24.85;;;;;;;3.48;100.00;100794.69;6228847;22;20023;-80
2024/03/13 04:21:59;;;;;;;49.95;23.25;;;;;;;3.46;100.00;100798.94;6254766;22;20026;-84
2024/03/13 04:24:25;;;;;;;51.50;22.70;;;;;;;3.47;100.00;100798.09;6230423;22;20038;-84
2024/03/13 04:26:52;;;;;;;51.25;23.15;;;;;;;3.45;100.00;100796.31;6255177;22;20007;-83
2024/03/13 04:29:20;;;;;;;51.63;23.30;;;;;;;3.46;100.00;100792.91;6204305;22;20020;-82
2024/03/13 04:31:47;;;;;;;50.75;22.25;;;;;;;3.45;100.00;100794.59;6230949;22;20041;-84
2024/03/13 04:34:14;;;;;;;55.60;23.08;;;;;;;3.45;100.00;100796.31;6255735;22;20114;-83
2024/03/13 04:36:40;;;;;;;44.05;21.40;;;;;;;3.45;100.00;100798.91;6233332;22;20043;-85
2024/03/13 04:39:08;;;;;;;50.17;22.20;;;;;;;3.43;100.00;100804.06;6231089;22;20388;-85
2024/03/13 04:41:39;;;;;;;49.40;22.55;;;;;;;3.38;100.00;100794.44;6256557;22;20754;-83
2024/03/13 04:44:19;;;;;;;43.47;21.60;;;;;;;3.39;100.00;100799.66;6260663;22;20434;-87
2024/03/13 04:46:53;;;;;;;52.63;24.65;;;;;;;3.38;100.00;100787.56;6246626;22;20516;-87
2024/03/13 04:49:22;;;;;;;46.38;21.38;;;;;;;3.40;100.00;100790.16;6239754;22;20029;-86
2024/03/13 04:51:48;;;;;;;41.00;22.23;;;;;;;3.43;100.00;100801.47;6260492;22;20053;-86
2024/03/13 04:54:19;;;;;;;49.22;23.02;;;;;;;3.46;100.00;100806.69;6235392;22;20030;-85
2024/03/13 04:56:53;;;;;;;45.92;23.13;;;;;;;3.53;100.00;100820.66;6233680;22;20047;-84
2024/03/13 04:59:20;;;;;;;42.38;22.15;;;;;;;3.56;100.00;100823.31;6233495;22;20078;-84
2024/03/13 05:01:49;;;;;;;41.67;21.30;;;;;;;3.58;100.00;100825.94;6255660;22;20026;-84
2024/03/13 05:04:25;;;;;;;51.67;23.23;;;;;;;3.54;100.00;100819.81;6234655;22;20019;-85
2024/03/13 05:06:56;;;;;;;;;;;;;;;3.54;100.00;100825.00;6235207;22;20016;-81
2024/03/13 05:09:24;;;;;;;51.65;20.70;;;;;;;3.58;100.00;100828.53;6265807;22;19954;-84
2024/03/13 05:11:53;;;;;;;55.42;25.90;;;;;;;3.58;100.00;100821.63;6257282;22;20071;-84
2024/03/13 05:14:22;;;;;;;50.20;22.15;;;;;;;3.57;100.00;100822.50;6231885;22;20023;-83
2024/03/13 05:16:48;;;;;;;50.25;24.77;;;;;;;3.58;100.00;100836.28;6230488;22;20058;-84
2024/03/13 05:19:18;;;;;;;60.35;23.42;;;;;;;3.59;100.00;100827.69;6256201;22;20011;-84
2024/03/13 05:21:45;;;;;;;41.25;20.52;;;;;;;3.59;100.00;100827.69;6232430;22;20028;-83
2024/03/13 05:24:14;;;;;;;52.13;24.30;;;;;;;3.60;100.00;100819.09;6257619;22;20022;-83
2024/03/13 05:26:41;;;;;;;44.75;19.77;;;;;;;3.59;100.00;100817.34;6231035;22;20019;-83
2024/03/13 05:29:09;;;;;;;51.95;24.38;;;;;;;3.59;100.00;100822.53;6231535;22;20042;-81
2024/03/13 05:31:39;;;;;;;48.92;21.90;;;;;;;3.59;100.00;100818.22;6256838;22;20077;-84
2024/03/13 05:34:07;;;;;;;44.03;21.05;;;;;;;3.61;100.00;100816.53;6231542;22;20030;-83
2024/03/13 05:36:36;;;;;;;43.67;20.50;;;;;;;3.63;100.00;100813.97;6257133;22;20012;-83
2024/03/13 05:39:10;;;;;;;48.72;22.17;;;;;;;3.64;100.00;100803.66;6255635;22;20043;-82
2024/03/13 05:41:40;;;;;;;46.50;21.75;;;;;;;3.64;100.00;100801.06;6233919;22;20112;-84
2024/03/13 05:44:09;;;;;;;42.67;21.23;;;;;;;3.63;100.00;100801.91;6257493;22;20073;-85
2024/03/13 05:46:37;;;;;;;43.75;20.50;;;;;;;3.66;100.00;100792.47;6232734;22;20046;-84
2024/03/13 05:49:16;;;;;;;38.17;21.25;;;;;;;3.69;100.00;100788.22;6235690;22;20019;-83
2024/03/13 05:51:47;;;;;;;44.85;21.27;;;;;;;3.74;100.00;100788.31;6210661;22;20047;-85
2024/03/13 05:54:14;;;;;;;40.35;19.70;;;;;;;3.74;100.00;100794.38;6258889;22;20028;-84
2024/03/13 05:56:41;;;;;;;44.10;21.95;;;;;;;3.77;100.00;100798.75;6257490;22;20074;-85
2024/03/13 05:59:43;;;;;;;39.25;20.02;;;;;;;3.81;100.00;100805.75;6231550;22;20043;-84
2024/03/13 06:02:13;;;;;;;44.90;19.58;;;;;;;3.86;100.00;100808.41;6237572;22;20046;-86
2024/03/13 06:04:42;;;;;;;39.90;20.08;;;;;;;3.88;100.00;100804.16;6262026;22;20020;-84
2024/03/13 06:07:09;;;;;;;43.45;20.17;;;;;;;3.90;100.00;100794.72;6234218;22;20014;-86
2024/03/13 06:09:38;;;;;;;40.33;17.60;;;;;;;3.90;100.00;100792.97;6260759;22;20015;-85
2024/03/13 06:12:05;;;;;;;44.17;20.98;;;;;;;3.92;100.00;100796.44;6257810;22;20024;-86
2024/03/13 06:14:34;;;;;;;46.97;20.70;;;;;;;3.97;100.00;100787.06;6236559;22;20558;-84
2024/03/13 06:17:01;;;;;;;48.13;21.48;;;;;;;4.01;100.00;100798.38;6258665;22;20042;-85
2024/03/13 06:19:29;;;;;;;46.13;22.83;;;;;;;4.07;100.00;100801.09;6257696;22;20709;-82
2024/03/13 06:21:58;;;;;;;42.42;20.23;;;;;;;4.14;100.00;100807.25;6256541;22;20081;-83
2024/03/13 06:24:32;;;;;;;42.88;20.63;;;;;;;4.18;100.00;100803.03;6257667;22;20042;-83
2024/03/13 06:27:00;;;;;;;45.20;20.58;;;;;;;4.26;100.00;100804.03;6258612;22;20034;-81
2024/03/13 06:32:11;;;;;;;39.67;20.13;;;;;;;4.39;100.00;100811.19;6261216;22;20011;-82
2024/03/13 06:34:40;;;;;;;41.97;20.48;;;;;;;4.44;100.00;100811.28;6232834;22;20419;-85
2024/03/13 06:37:07;;;;;;;37.55;18.30;;;;;;;4.55;100.00;100808.88;6233446;22;20035;-84
2024/03/13 06:39:35;;;;;;;36.40;18.08;;;;;;;4.63;100.00;100804.72;6258329;22;20087;-84
2024/03/13 06:42:02;;;;;;;43.03;20.10;;;;;;;4.73;100.00;100801.47;6231842;22;20023;-81
2024/03/13 06:44:28;;;;;;;42.80;19.73;;;;;;;5.20;100.00;100805.69;6232321;22;20035;-84
2024/03/13 06:46:58;;;;;;;37.83;17.67;;;;;;;5.90;100.00;100798.84;6231437;22;20027;-84
2024/03/13 06:49:31;;;;;;;33.22;17.95;;;;;;;5.64;100.00;100799.38;6259822;22;20023;-83
2024/03/13 06:51:58;;;;;;;33.65;18.02;;;;;;;5.70;100.00;100796.88;6233551;22;20414;-84
2024/03/13 06:54:25;;;;;;;34.00;16.42;;;;;;;7.68;100.00;100793.50;6257586;22;20022;-82
2024/03/13 06:56:53;;;;;;;34.47;17.52;;;;;;;9.13;100.00;100789.53;6231753;22;20023;-83
2024/03/13 06:59:24;;;;;;;31.73;14.93;;;;;;;10.43;97.92;100795.22;6285608;22;20022;-85
2024/03/13 07:01:55;;;;;;;32.15;15.82;;;;;;;11.30;88.48;100792.75;6279973;22;20119;-83
2024/03/13 07:04:23;;;;;;;29.38;14.52;;;;;;;12.34;78.76;100800.31;6259681;22;20110;-86
2024/03/13 07:07:10;;;;;;;27.42;15.45;;;;;;;12.90;74.34;100795.09;6237111;22;20042;-82
2024/03/13 07:09:43;;;;;;;27.70;14.10;;;;;;;13.61;68.94;100792.13;6265316;22;20019;-85
2024/03/13 07:12:13;;;;;;;28.13;14.57;;;;;;;14.21;67.79;100799.69;6214790;22;20031;-82
2024/03/13 07:14:40;;;;;;;29.60;15.13;;;;;;;13.79;62.20;100799.66;6257428;22;20286;-82
2024/03/13 07:17:08;;;;;;;23.63;14.73;;;;;;;14.16;64.38;100796.28;6257196;22;20036;-82
2024/03/13 07:19:41;;;;;;;27.08;14.88;;;;;;;14.74;62.11;100793.25;6234985;22;20460;-84
2024/03/13 07:22:12;;;;;;;22.70;12.95;;;;;;;15.46;60.66;100794.94;6232608;22;20102;-84
2024/03/13 07:24:42;;;;;;;23.65;14.35;;;;;;;15.20;59.46;100794.75;6233900;22;20046;-85
2024/03/13 07:27:09;;;;;;;21.17;13.48;;;;;;;15.49;57.46;100795.75;6226647;22;20050;-85
2024/03/13 07:29:36;;;;;;;24.17;13.30;;;;;;;15.71;54.88;100805.72;6231928;22;20069;-82
2024/03/13 07:32:02;;;;;;;18.48;11.30;;;;;;;16.32;56.79;100807.47;6256423;22;20083;-83
2024/03/13 07:34:29;;;;;;;23.60;11.90;;;;;;;16.72;55.06;100789.53;6230180;22;20023;-84
2024/03/13 07:36:56;;;;;;;21.98;11.52;;;;;;;17.48;53.20;100788.75;6257542;22;20103;-85
2024/03/13 07:39:28;;;;;;;20.90;12.00;;;;;;;17.80;51.46;100796.44;6258638;22;20020;-86
2024/03/13 07:41:58;;;;;;;19.80;12.35;;;;;;;17.15;50.77;100788.97;6257511;22;20018;-82
2024/03/13 07:44:27;;;;;;;18.15;11.57;;;;;;;16.57;52.03;100785.59;6230992;22;20026;-84
2024/03/13 07:46:53;;;;;;;18.15;10.63;;;;;;;17.12;52.95;100794.38;6258150;22;20020;-84
2024/03/13 07:49:22;;;;;;;18.88;12.40;;;;;;;17.77;51.34;100784.16;6231147;22;20019;-85
2024/03/13 07:51:49;;;;;;;16.10;11.02;;;;;;;16.72;50.79;100782.44;6229426;22;20030;-83
2024/03/13 07:54:16;;;;;;;14.93;10.48;;;;;;;17.72;50.17;100790.53;6230594;22;20015;-84
2024/03/13 07:56:42;;;;;;;17.60;10.68;;;;;;;18.31;49.73;100792.75;6228180;22;20077;-83
2024/03/13 07:59:10;;;;;;;18.67;10.48;;;;;;;18.79;47.92;100790.84;6227595;22;20024;-83
2024/03/13 08:01:45;;;;;;;17.58;11.85;;;;;;;18.37;48.87;100785.47;6230163;22;20066;-84
2024/03/13 08:04:14;;;;;;;14.50;9.55;;;;;;;17.56;50.32;100792.88;6205070;22;20023;-84
2024/03/13 08:06:41;;;;;;;15.98;10.20;;;;;;;18.02;48.71;100792.09;6231366;22;20027;-85
2024/03/13 08:09:07;;;;;;;16.58;9.80;;;;;;;15.29;54.10;100783.09;6230882;22;20079;-85
2024/03/13 08:11:34;;;;;;;14.90;9.63;;;;;;;13.13;59.41;100783.34;6230869;22;20051;-84
2024/03/13 08:14:01;;;;;;;15.35;9.60;;;;;;;11.89;65.12;100793.00;6254327;22;20020;-82
2024/03/13 08:16:28;;;;;;;14.23;9.20;;;;;;;11.09;70.63;100799.97;6228090;22;20707;-84
2024/03/13 08:18:55;;;;;;;12.75;8.70;;;;;;;10.58;74.79;100805.56;6228331;22;20028;-86
2024/03/13 08:21:24;;;;;;;18.90;10.93;;;;;;;10.21;78.30;100804.88;6229360;22;20020;-84
2024/03/13 08:23:52;;;;;;;13.05;9.02;;;;;;;10.21;79.29;100805.75;6228855;22;20020;-83
2024/03/13 08:26:19;;;;;;;14.25;8.98;;;;;;;10.24;80.28;100812.72;6251717;22;20020;-84
2024/03/13 08:28:46;;;;;;;12.48;8.75;;;;;;;10.68;79.23;100806.38;6253738;22;20020;-83
2024/03/13 08:31:13;;;;;;;13.05;8.35;;;;;;;11.72;75.78;100815.91;6279250;22;20050;-83
2024/03/13 08:33:43;;;;;;;15.35;9.23;;;;;;;13.28;68.88;100805.00;6281358;22;20050;-84
2024/03/13 08:36:13;;;;;;;14.88;9.13;;;;;;;14.46;64.95;100796.50;6228854;22;20020;-83
2024/03/13 08:38:42;;;;;;;11.23;8.10;;;;;;;14.76;60.66;100793.19;6230791;22;20522;-84
2024/03/13 08:41:13;;;;;;;16.25;8.48;;;;;;;15.58;58.00;100793.75;6254988;22;20023;-84
2024/03/13 08:43:39;;;;;;;11.77;9.13;;;;;;;15.19;58.58;100790.38;6258012;22;20019;-84
2024/03/13 08:46:09;;;;;;;14.85;9.25;;;;;;;15.10;58.60;100790.59;6231184;22;20054;-87
2024/03/13 08:48:36;;;;;;;12.82;7.65;;;;;;;14.67;60.55;100786.41;6233294;22;20020;-83
2024/03/13 08:51:12;;;;;;;12.13;7.57;;;;;;;14.70;61.35;100781.06;6231216;22;20050;-86
2024/03/13 08:53:40;;;;;;;10.60;7.03;;;;;;;15.04;59.52;100777.56;6255383;22;20106;-84
2024/03/13 08:56:10;;;;;;;10.90;6.82;;;;;;;14.44;61.14;100782.50;6256358;22;20023;-82
2024/03/13 08:58:44;;;;;;;10.15;6.50;;;;;;;13.42;64.24;100783.75;6256357;22;20027;-83
2024/03/13 09:01:12;;;;;;;9.30;6.70;;;;;;;13.59;64.72;100786.06;6231561;22;20119;-86
2024/03/13 09:03:39;;;;;;;9.98;6.72;;;;;;;13.28;66.34;100781.34;6255589;22;20023;-83
2024/03/13 09:06:14;;;;;;;8.65;5.72;;;;;;;12.84;66.84;100776.81;6228642;22;20018;-84
2024/03/13 09:08:50;;;;;;;9.48;6.13;;;;;;;12.55;68.50;100774.63;6234123;22;20035;-85
2024/03/13 09:11:22;;;;;;;10.05;6.28;;;;;;;12.27;69.95;100780.31;6230995;22;20084;-84
2024/03/13 09:13:50;;;;;;;9.48;6.80;;;;;;;11.74;72.30;100788.78;6232931;22;20425;-85
2024/03/13 09:16:21;;;;;;;9.73;6.60;;;;;;;11.68;73.61;100780.13;6231322;22;20495;-84
2024/03/13 09:18:51;;;;;;;8.35;6.45;;;;;;;11.22;76.17;100789.34;6256988;22;20020;-85
2024/03/13 09:21:26;;;;;;;10.32;6.13;;;;;;;11.19;77.13;100781.53;6231371;22;20034;-83
2024/03/13 09:23:53;;;;;;;9.70;6.35;;;;;;;11.04;78.62;100793.00;6257989;22;20026;-84
2024/03/13 09:26:21;;;;;;;11.85;7.03;;;;;;;11.18;78.46;100793.75;6255721;22;20102;-83
2024/03/13 09:28:51;;;;;;;11.32;6.55;;;;;;;11.14;78.91;100796.41;6231393;22;20034;-86
2024/03/13 09:31:17;;;;;;;8.60;6.05;;;;;;;11.17;79.13;100799.00;6231666;22;20024;-83
2024/03/13 09:33:56;;;;;;;11.73;7.55;;;;;;;11.16;79.38;100808.63;6257191;22;20016;-85
2024/03/13 09:36:26;;;;;;;10.30;7.10;;;;;;;11.17;79.54;100799.00;6255924;22;20066;-84
2024/03/13 09:38:57;;;;;;;;;;;;;;;10.97;80.86;100804.44;6230811;22;20020;-85
2024/03/13 09:41:26;;;;;;;9.15;5.97;;;;;;;10.92;81.64;100807.97;6254401;22;19915;-85
2024/03/13 09:43:53;;;;;;;10.35;6.97;;;;;;;11.16;80.76;100813.88;6229262;22;20081;-83
2024/03/13 09:46:20;;;;;;;8.98;6.05;;;;;;;11.03;81.49;100813.09;6229462;22;20016;-83
2024/03/13 09:49:09;;;;;;;11.15;7.07;;;;;;;11.08;81.43;100810.41;6230535;22;20057;-84
2024/03/13 09:51:39;;;;;;;12.70;7.53;;;;;;;10.95;81.70;100812.31;6255439;22;20046;-85
2024/03/13 09:54:08;;;;;;;14.85;8.20;;;;;;;10.82;82.48;100811.53;6205911;22;20131;-84
2024/03/13 09:56:46;;;;;;;12.70;7.72;;;;;;;10.73;83.22;100815.06;6257313;22;20020;-85
2024/03/13 09:59:15;;;;;;;11.25;7.40;;;;;;;10.73;83.87;100816.84;6233121;22;20095;-85
2024/03/13 10:01:50;;;;;;;13.15;7.80;;;;;;;10.84;83.36;100820.22;6257433;22;20636;-84
2024/03/13 10:04:27;;;;;;;11.07;7.32;;;;;;;10.85;83.47;100818.50;6230656;22;20054;-84
2024/03/13 10:07:02;;;;;;;10.45;7.75;;;;;;;10.68;84.32;100826.47;6257247;22;20015;-85
2024/03/13 10:09:35;;;;;;;8.98;7.18;;;;;;;10.66;84.76;100815.97;6256151;22;20084;-84
2024/03/13 10:12:12;;;;;;;12.73;7.95;;;;;;;10.58;85.54;100823.88;6230363;22;20004;-83
2024/03/13 10:14:40;;;;;;;14.35;7.05;;;;;;;10.48;86.82;100826.56;6205813;22;20035;-85
2024/03/13 10:17:12;;;;;;;11.90;7.30;;;;;;;10.46;87.67;100818.72;6229109;22;20012;-84
2024/03/13 10:19:52;;;;;;;14.13;7.43;;;;;;;10.56;87.55;100827.41;6229779;22;20372;-86
2024/03/13 10:22:20;;;;;;;11.23;7.80;;;;;;;10.55;87.69;100826.53;6253130;22;20043;-84
2024/03/13 10:24:51;;;;;;;12.40;7.07;;;;;;;10.47;88.91;100827.44;6254069;22;20016;-84
2024/03/13 10:27:23;;;;;;;10.15;7.53;;;;;;;10.65;87.84;100829.09;6228048;22;20016;-85
2024/03/13 10:29:56;;;;;;;12.82;7.75;;;;;;;10.33;89.88;100815.28;6278969;22;20020;-82
2024/03/13 10:32:27;;;;;;;11.82;8.05;;;;;;;10.61;89.46;100814.28;6253597;22;20028;-84
2024/03/13 10:34:56;;;;;;;14.75;7.97;;;;;;;10.83;88.08;100815.84;6253777;22;20051;-84
2024/03/13 10:37:27;;;;;;;13.45;8.13;;;;;;;10.76;88.71;100816.78;6253255;22;20090;-85
2024/03/13 10:39:58;;;;;;;11.52;7.80;;;;;;;10.90;88.35;100820.19;6255907;22;20030;-84
2024/03/13 10:42:25;;;;;;;11.63;7.35;;;;;;;10.85;88.17;100824.59;6253879;22;20443;-84
2024/03/13 10:44:52;;;;;;;13.75;7.70;;;;;;;10.82;88.86;100815.88;6228945;22;20024;-85
2024/03/13 10:47:22;;;;;;;12.50;7.90;;;;;;;10.87;88.45;100817.59;6230182;22;20016;-83
2024/03/13 10:49:58;;;;;;;10.38;6.55;;;;;;;11.05;87.38;100815.69;6258636;22;20069;-83
2024/03/13 10:52:32;;;;;;;11.75;7.97;;;;;;;11.00;88.01;100823.63;6236655;22;20051;-85
2024/03/13 10:54:59;;;;;;;10.50;7.10;;;;;;;11.10;87.58;100824.38;6232302;22;20117;-85
2024/03/13 10:57:27;;;;;;;16.90;7.70;;;;;;;11.17;87.49;100822.59;6257416;22;20063;-84
2024/03/13 10:59:53;;;;;;;11.18;7.55;;;;;;;11.07;88.11;100820.03;6232947;22;20024;-84
2024/03/13 11:02:24;;;;;;;12.20;7.53;;;;;;;10.97;89.41;100828.00;6284911;22;20081;-82
2024/03/13 11:04:53;;;;;;;12.02;7.40;;;;;;;10.98;90.03;100832.38;6258010;22;20019;-84
2024/03/13 11:07:23;;;;;;;10.40;7.07;;;;;;;10.80;91.54;100828.13;6232370;22;20019;-83
2024/03/13 11:09:53;;;;;;;12.25;8.18;;;;;;;10.81;92.51;100828.09;6232474;22;20003;-84
2024/03/13 11:12:25;;;;;;;13.65;8.18;;;;;;;10.85;93.27;100834.19;6231260;22;20047;-85
2024/03/13 11:14:58;;;;;;;13.85;8.88;;;;;;;10.84;93.96;100822.84;6259364;22;20023;-84
2024/03/13 11:17:31;;;;;;;10.60;6.90;;;;;;;10.95;93.15;100814.03;6257939;22;20046;-83
2024/03/13 11:20:12;;;;;;;11.02;7.43;;;;;;;11.10;92.56;100819.16;6232966;22;20023;-85
2024/03/13 11:22:46;;;;;;;14.93;8.60;;;;;;;11.15;91.99;100819.97;6231867;22;20024;-84
2024/03/13 11:25:19;;;;;;;;;;;;;;;11.25;91.33;100813.78;6255933;22;20027;-85
2024/03/13 11:27:58;;;;;;;12.77;7.72;;;;;;;11.39;90.16;100808.41;6230699;22;19925;-85
2024/03/13 11:30:28;;;;;;;11.35;7.78;;;;;;;11.53;89.78;100810.03;6254861;22;20073;-85
2024/03/13 11:32:56;;;;;;;10.10;6.95;;;;;;;11.79;88.90;100809.72;6231247;22;20527;-84
2024/03/13 11:35:24;;;;;;;10.45;7.55;;;;;;;11.83;87.82;100810.56;6229625;22;20081;-83
2024/03/13 11:37:53;;;;;;;10.73;8.02;;;;;;;11.88;87.79;100806.13;6230911;22;20457;-84
2024/03/13 11:40:22;;;;;;;13.05;8.45;;;;;;;12.20;86.89;100802.25;6254847;22;20052;-85
2024/03/13 11:42:49;;;;;;;10.70;6.93;;;;;;;12.35;84.95;100799.44;6256193;22;20735;-85
2024/03/13 11:45:19;;;;;;;9.13;6.55;;;;;;;12.10;85.73;100803.25;6230366;22;20038;-85